Time;durP1;ratioP1;P1;durP2;ratioP2;P2;SDS_P1;SDS_P2;PMS_P1;PMS_P2;Temp;Humidity;BMP_temperature;BMP_pressure;BME280_temperature;BME280_humidity;BME280_pressure;Samples;Min_cycle;Max_cycle;Signal;HPM_P1;HPM_P2
2021/07/02 00:00:12;;;;;;;22.98;11.93;;;;;;;23.80;81.30;99118.84;5047741;28;20041;-73
2021/07/02 00:02:39;;;;;;;18.27;10.15;;;;;;;23.73;80.98;99126.38;5045102;28;20105;-73
2021/07/02 00:05:06;;;;;;;17.20;10.93;;;;;;;23.75;82.04;99124.22;5046930;28;20025;-73
2021/07/02 00:07:32;;;;;;;16.65;10.43;;;;;;;23.71;81.66;99117.72;5044948;28;20342;-72
2021/07/02 00:09:57;;;;;;;20.23;13.13;;;;;;;23.67;83.69;99119.31;5045240;28;20029;-73
2021/07/02 00:12:23;;;;;;;24.35;14.13;;;;;;;23.71;84.18;99109.59;5045713;28;20041;-73
2021/07/02 00:14:48;;;;;;;26.10;14.02;;;;;;;23.78;84.43;99106.66;5043888;28;20033;-73
2021/07/02 00:17:14;;;;;;;18.50;10.07;;;;;;;23.70;82.25;99096.34;5047528;28;20058;-73
2021/07/02 00:19:39;;;;;;;15.77;9.13;;;;;;;23.78;80.39;99106.66;5042888;28;20350;-73
2021/07/02 00:22:05;;;;;;;15.60;9.13;;;;;;;23.72;78.77;99099.59;5046088;28;20024;-73
2021/07/02 00:24:30;;;;;;;26.73;9.40;;;;;;;23.55;79.70;99106.00;5045914;28;20164;-73
2021/07/02 00:26:56;;;;;;;15.70;9.40;;;;;;;23.56;80.66;99101.41;5048248;28;20024;-73
2021/07/02 00:29:22;;;;;;;34.28;12.00;;;;;;;23.39;82.10;99098.88;5043013;28;20033;-72
2021/07/02 00:31:48;;;;;;;28.13;13.02;;;;;;;23.35;82.66;99089.66;5045452;28;20093;-73
2021/07/02 00:34:14;;;;;;;31.23;18.05;;;;;;;23.05;85.99;99101.06;5042583;28;20042;-73
2021/07/02 00:36:39;;;;;;;34.13;19.75;;;;;;;22.83;88.53;99106.53;5048366;28;20033;-72
2021/07/02 00:39:05;;;;;;;29.70;17.90;;;;;;;23.15;87.56;99094.94;5045622;28;20056;-72
2021/07/02 00:41:30;;;;;;;35.88;17.48;;;;;;;23.01;87.63;99101.84;5042593;28;20017;-73
2021/07/02 00:43:56;;;;;;;41.38;17.15;;;;;;;22.92;88.25;99109.59;5045575;28;20083;-73
2021/07/02 00:46:23;;;;;;;40.95;16.65;;;;;;;22.86;89.14;99105.22;5042649;28;20047;-73
2021/07/02 00:48:49;;;;;;;45.13;17.88;;;;;;;22.74;89.83;99099.13;5046863;28;20040;-73
2021/07/02 00:51:15;;;;;;;30.13;16.67;;;;;;;22.93;88.03;99105.84;5047242;28;20063;-72
2021/07/02 00:53:41;;;;;;;31.02;16.38;;;;;;;23.13;86.24;99102.47;5049685;28;20266;-73
2021/07/02 00:56:09;;;;;;;39.25;16.55;;;;;;;23.18;86.70;99113.31;5052593;28;20053;-73
2021/07/02 00:58:34;;;;;;;31.67;18.48;;;;;;;22.74;88.18;99097.25;5044928;28;20037;-72
2021/07/02 01:01:00;;;;;;;36.17;19.17;;;;;;;22.51;89.82;99105.66;5047761;28;20052;-73
2021/07/02 01:03:26;;;;;;;32.70;20.60;;;;;;;22.29;92.14;99103.03;5046138;28;20063;-73
2021/07/02 01:05:53;;;;;;;31.45;21.30;;;;;;;22.51;91.09;99101.09;5046084;28;20323;-72
2021/07/02 01:08:19;;;;;;;26.13;19.80;;;;;;;22.75;90.18;99106.16;5045828;28;20025;-72
2021/07/02 01:10:45;;;;;;;25.17;18.67;;;;;;;23.07;87.76;99104.31;5046213;28;20025;-73
2021/07/02 01:13:11;;;;;;;36.33;17.10;;;;;;;23.16;85.12;99091.97;5043178;28;20079;-72
2021/07/02 01:15:36;;;;;;;27.33;18.20;;;;;;;23.24;85.81;99104.97;5045577;28;20033;-72
2021/07/02 01:18:10;;;;;;;27.25;17.52;;;;;;;23.18;87.25;99086.31;5045764;28;20078;-73
2021/07/02 01:20:36;;;;;;;30.90;17.87;;;;;;;23.04;88.27;99080.53;5039652;28;20748;-73
2021/07/02 01:23:02;;;;;;;23.45;16.58;;;;;;;23.10;87.94;99068.69;5043398;28;20551;-73
2021/07/02 01:25:33;;;;;;;18.52;14.90;;;;;;;23.21;87.25;99074.97;5044803;28;20246;-73
2021/07/02 01:28:02;;;;;;;18.52;14.55;;;;;;;23.24;86.78;99074.47;5043111;28;20318;-73
2021/07/02 01:30:27;;;;;;;15.50;13.82;;;;;;;23.15;86.37;99076.84;5042895;28;20029;-72
2021/07/02 01:32:53;;;;;;;18.20;14.07;;;;;;;23.03;85.94;99053.78;5044216;28;20063;-73
2021/07/02 01:35:19;;;;;;;19.55;14.60;;;;;;;23.13;86.10;99078.97;5042634;28;20112;-73
2021/07/02 01:37:46;;;;;;;20.00;15.20;;;;;;;23.22;85.96;99082.00;5045611;28;20464;-73
2021/07/02 01:40:12;;;;;;;22.17;15.30;;;;;;;22.99;86.91;99085.91;5043299;28;20024;-72
2021/07/02 01:42:38;;;;;;;23.13;17.05;;;;;;;23.01;87.51;99102.66;5042961;28;20039;-73
2021/07/02 01:45:08;;;;;;;23.20;15.75;;;;;;;23.06;86.09;99083.78;5043226;28;20025;-73
2021/07/02 01:47:33;;;;;;;25.55;15.02;;;;;;;22.98;86.36;99100.47;5044891;28;20076;-73
2021/07/02 01:50:00;;;;;;;19.95;14.88;;;;;;;22.92;86.40;99096.91;5047480;28;20049;-73
2021/07/02 01:52:25;;;;;;;16.77;14.48;;;;;;;22.85;86.11;99096.28;5042744;28;20048;-72
2021/07/02 01:54:51;;;;;;;17.40;13.77;;;;;;;22.88;86.38;99098.47;5046663;28;20593;-72
2021/07/02 01:57:21;;;;;;;19.75;13.85;;;;;;;23.02;85.27;99090.78;5041236;28;20029;-72
2021/07/02 01:59:47;;;;;;;30.38;15.02;;;;;;;22.73;86.80;99095.63;5043928;28;20020;-73
2021/07/02 02:02:12;;;;;;;51.50;16.25;;;;;;;22.69;87.10;99088.28;5059610;28;20320;-72
2021/07/02 02:04:38;;;;;;;66.25;16.83;;;;;;;22.57;88.05;99099.25;5058872;28;20032;-73
2021/07/02 02:07:03;;;;;;;53.45;17.17;;;;;;;22.53;88.67;99107.03;5062000;28;20040;-72
2021/07/02 02:09:29;;;;;;;38.22;16.80;;;;;;;22.32;89.64;99101.69;5055651;28;20037;-73
2021/07/02 02:11:54;;;;;;;26.15;17.45;;;;;;;22.40;89.27;99117.44;5062231;28;20071;-72
2021/07/02 02:14:20;;;;;;;19.88;16.02;;;;;;;22.17;90.00;99111.25;5060730;28;20336;-73
2021/07/02 02:16:45;;;;;;;21.45;16.42;;;;;;;22.19;89.30;99111.81;5057702;28;20032;-72
2021/07/02 02:19:10;;;;;;;20.33;17.52;;;;;;;22.33;88.19;99112.22;5062349;28;20033;-73
2021/07/02 02:21:36;;;;;;;25.50;17.10;;;;;;;22.23;88.83;99117.53;5061897;28;20070;-73
2021/07/02 02:24:02;;;;;;;25.80;17.38;;;;;;;22.15;89.78;99121.47;5060805;28;20025;-72
2021/07/02 02:26:27;;;;;;;23.70;17.08;;;;;;;22.14;89.36;99125.25;5060787;28;20111;-72
2021/07/02 02:28:53;;;;;;;24.35;16.52;;;;;;;22.28;88.54;99125.66;5061446;28;20364;-73
2021/07/02 02:31:18;;;;;;;28.70;17.75;;;;;;;22.56;86.38;99124.59;5047646;28;20034;-73
2021/07/02 02:33:43;;;;;;;29.67;16.95;;;;;;;22.51;87.43;99122.66;5048213;28;20033;-72
2021/07/02 02:36:09;;;;;;;28.60;17.48;;;;;;;22.35;88.13;99123.59;5052788;28;20031;-73
2021/07/02 02:38:34;;;;;;;31.92;16.30;;;;;;;22.35;88.75;99133.56;5091680;28;20045;-73
2021/07/02 02:41:00;;;;;;;33.53;17.35;;;;;;;22.45;87.66;99147.97;5059260;28;20035;-73
2021/07/02 02:43:26;;;;;;;31.50;16.00;;;;;;;22.18;88.03;99139.84;5060440;28;20036;-72
2021/07/02 02:45:51;;;;;;;38.70;15.95;;;;;;;22.18;88.26;99145.25;5061718;28;20029;-73
2021/07/02 03:05:18;;;;;;;29.45;11.30;;;;;;;21.84;88.14;99157.16;5079116;28;21053;-73
2021/07/02 03:07:43;;;;;;;27.95;11.27;;;;;;;21.81;88.39;99154.97;5064904;28;20409;-74
2021/07/02 03:10:10;;;;;;;30.23;11.25;;;;;;;21.83;88.62;99148.25;5060354;28;20040;-73
2021/07/02 03:12:36;;;;;;;29.13;11.85;;;;;;;21.95;87.46;99145.47;5068337;28;20040;-73
2021/07/02 03:15:01;;;;;;;32.28;11.10;;;;;;;22.08;86.79;99152.41;5065583;28;20063;-73
2021/07/02 03:17:27;;;;;;;31.52;11.45;;;;;;;21.98;86.19;99145.78;5064319;28;20116;-73
2021/07/02 03:19:52;;;;;;;29.30;11.18;;;;;;;21.96;86.48;99150.59;5070406;28;20037;-73
2021/07/02 03:22:18;;;;;;;25.20;10.60;;;;;;;21.97;86.46;99163.03;5059294;28;20029;-73
2021/07/02 03:24:44;;;;;;;22.10;11.18;;;;;;;22.04;86.00;99167.44;5065575;28;20308;-73
2021/07/02 03:27:09;;;;;;;23.95;12.20;;;;;;;22.03;85.51;99153.16;5065817;28;20354;-73
2021/07/02 03:29:35;;;;;;;21.17;11.50;;;;;;;22.28;84.70;99168.81;5064684;28;20333;-73
2021/07/02 03:32:01;;;;;;;26.25;11.48;;;;;;;22.29;84.64;99171.25;5066357;28;20052;-74
2021/07/02 03:34:26;;;;;;;27.55;11.65;;;;;;;22.34;83.97;99175.91;5069095;28;20336;-74
2021/07/02 03:36:52;;;;;;;31.48;11.40;;;;;;;22.21;84.33;99176.28;5062098;28;20040;-73
2021/07/02 03:39:17;;;;;;;24.73;10.43;;;;;;;22.23;84.29;99166.88;5064584;28;20044;-73
2021/07/02 03:41:43;;;;;;;23.75;10.57;;;;;;;22.34;82.95;99162.41;5060458;28;20406;-73
2021/07/02 03:44:08;;;;;;;22.52;9.23;;;;;;;22.25;81.55;99161.22;5049224;28;20037;-72
2021/07/02 03:46:34;;;;;;;19.58;9.98;;;;;;;22.44;81.45;99159.81;5053882;28;20028;-73
2021/07/02 03:48:59;;;;;;;22.27;9.85;;;;;;;22.42;82.12;99164.66;5045294;28;20072;-75
2021/07/02 03:51:25;;;;;;;22.90;10.43;;;;;;;22.34;82.45;99159.72;5047042;28;20037;-74
2021/07/02 03:53:50;;;;;;;20.60;9.52;;;;;;;22.53;82.04;99173.69;5048306;28;20041;-73
2021/07/02 03:56:16;;;;;;;21.52;10.00;;;;;;;22.63;81.01;99166.50;5049711;28;20314;-73
2021/07/02 03:58:41;;;;;;;20.50;9.60;;;;;;;22.87;79.56;99175.13;5054254;28;20314;-73
2021/07/02 04:01:07;;;;;;;22.27;9.77;;;;;;;22.90;79.72;99174.66;5047134;28;20040;-73
2021/07/02 04:03:33;;;;;;;23.48;9.75;;;;;;;22.94;79.84;99180.34;5051714;28;20043;-73
2021/07/02 04:05:59;;;;;;;18.63;9.70;;;;;;;23.35;77.92;99175.28;5040809;28;20040;-73
2021/07/02 04:08:25;;;;;;;24.15;9.15;;;;;;;23.27;78.44;99167.66;5039328;28;20045;-73
2021/07/02 04:10:50;;;;;;;22.38;9.18;;;;;;;23.40;77.49;99178.84;5040917;28;20064;-73
2021/07/02 04:13:16;;;;;;;16.83;7.78;;;;;;;23.39;77.34;99176.41;5031349;28;20037;-73
2021/07/02 04:15:41;;;;;;;19.77;9.38;;;;;;;23.44;77.43;99176.44;5067187;28;20029;-73
2021/07/02 04:18:07;;;;;;;22.52;8.93;;;;;;;23.44;76.79;99190.75;5043693;28;20037;-73
2021/07/02 04:20:34;;;;;;;19.20;9.02;;;;;;;23.64;76.73;99187.41;5042392;28;20028;-73
2021/07/02 04:23:00;;;;;;;18.92;8.45;;;;;;;23.85;75.44;99189.16;5025441;28;20053;-73
2021/07/02 04:25:25;;;;;;;18.10;8.13;;;;;;;24.17;74.53;99196.38;5043346;28;20029;-73
2021/07/02 04:27:51;;;;;;;17.90;8.40;;;;;;;24.30;73.89;99200.50;5028245;28;20389;-73
2021/07/02 04:30:17;;;;;;;22.10;8.10;;;;;;;24.55;72.69;99197.06;5044500;28;20031;-73
2021/07/02 04:32:42;;;;;;;20.02;8.48;;;;;;;24.75;72.32;99197.94;5042110;28;20041;-73
2021/07/02 04:35:09;;;;;;;19.15;8.00;;;;;;;24.83;71.38;99205.53;5034572;28;20394;-73
2021/07/02 04:37:36;;;;;;;20.30;8.75;;;;;;;24.98;70.98;99209.41;5033272;28;20105;-73
2021/07/02 04:40:03;;;;;;;22.17;8.02;;;;;;;25.31;69.37;99213.50;5040312;28;20025;-73
2021/07/02 04:42:29;;;;;;;19.83;8.45;;;;;;;25.31;69.08;99208.06;5068298;28;20048;-73
2021/07/02 04:44:54;;;;;;;15.48;7.80;;;;;;;25.55;69.05;99205.63;5041297;28;20572;-74
2021/07/02 04:47:19;;;;;;;18.17;8.32;;;;;;;25.71;67.50;99213.47;5029279;28;20032;-74
2021/07/02 04:49:45;;;;;;;19.65;8.45;;;;;;;25.85;67.08;99210.19;5034389;28;20029;-73
2021/07/02 04:52:10;;;;;;;19.75;7.97;;;;;;;26.04;65.92;99217.50;5038947;28;20228;-73
2021/07/02 04:54:36;;;;;;;18.75;7.85;;;;;;;26.20;65.40;99206.59;5035594;28;20322;-73
2021/07/02 04:57:02;;;;;;;18.70;8.27;;;;;;;26.46;64.54;99221.72;5040311;28;20226;-73
2021/07/02 04:59:30;;;;;;;22.45;7.88;;;;;;;26.61;62.61;99220.81;5043519;28;20113;-73
2021/07/02 05:01:57;;;;;;;19.25;7.65;;;;;;;26.94;62.04;99220.09;5036029;28;20030;-73
2021/07/02 05:04:22;;;;;;;19.25;7.40;;;;;;;27.20;61.28;99220.78;5039592;28;20121;-73
2021/07/02 05:06:48;;;;;;;20.60;6.97;;;;;;;27.17;60.86;99223.25;5032328;28;20067;-73
2021/07/02 05:09:13;;;;;;;16.17;7.07;;;;;;;27.42;60.24;99224.94;5036523;28;20277;-74
2021/07/02 05:11:39;;;;;;;21.55;7.30;;;;;;;27.61;58.81;99217.72;5043998;28;20032;-73
2021/07/02 05:14:06;;;;;;;17.52;7.38;;;;;;;28.02;58.67;99234.44;5037184;28;20055;-73
2021/07/02 05:16:32;;;;;;;14.15;6.55;;;;;;;28.06;57.00;99213.72;5035952;28;20025;-73
2021/07/02 05:18:57;;;;;;;13.90;6.70;;;;;;;28.29;56.74;99225.75;5028789;28;20254;-73
2021/07/02 05:21:23;;;;;;;19.52;10.77;;;;;;;28.42;56.34;99225.06;5035344;28;20022;-74
2021/07/02 05:23:48;;;;;;;28.25;9.85;;;;;;;28.11;57.54;99232.75;5032875;28;20037;-73
2021/07/02 05:26:14;;;;;;;18.17;6.82;;;;;;;28.31;56.55;99234.44;5037548;28;20030;-73
2021/07/02 05:28:40;;;;;;;18.35;8.65;;;;;;;28.64;55.92;99234.59;5042070;28;20217;-73
2021/07/02 05:31:06;;;;;;;18.48;9.82;;;;;;;28.59;54.36;99221.84;5032617;28;20044;-73
2021/07/02 05:33:32;;;;;;;15.05;7.35;;;;;;;28.49;55.81;99225.50;5036213;28;20211;-73
2021/07/02 05:35:57;;;;;;;14.40;6.93;;;;;;;28.81;54.66;99232.16;5037406;28;20041;-73
2021/07/02 05:38:23;;;;;;;14.45;6.43;;;;;;;28.87;54.24;99234.56;5039892;28;20029;-73
2021/07/02 05:40:54;;;;;;;14.98;6.45;;;;;;;28.86;53.60;99234.84;5069322;28;20033;-73
2021/07/02 05:43:19;;;;;;;17.05;6.13;;;;;;;29.11;52.60;99229.00;5034220;28;20029;-74
2021/07/02 05:45:45;;;;;;;12.50;6.88;;;;;;;29.20;51.93;99243.63;5064210;28;20230;-73
2021/07/02 05:48:14;;;;;;;12.68;5.97;;;;;;;29.45;51.44;99244.34;5041696;28;20082;-73
2021/07/02 05:50:39;;;;;;;13.40;7.28;;;;;;;29.46;49.91;99245.97;5039967;28;20805;-71
2021/07/02 05:53:05;;;;;;;22.88;7.10;;;;;;;29.62;51.69;99241.88;5068190;28;20032;-73
2021/07/02 05:55:30;;;;;;;13.45;6.72;;;;;;;29.81;49.40;99247.28;5038807;28;20025;-73
2021/07/02 05:57:55;;;;;;;22.55;6.68;;;;;;;30.21;49.63;99247.66;5035082;28;20037;-73
2021/07/02 06:00:22;;;;;;;17.30;6.18;;;;;;;30.08;49.44;99221.94;5038518;28;20036;-70
2021/07/02 06:02:47;;;;;;;17.67;7.28;;;;;;;30.39;48.41;99252.22;5038108;28;20021;-71
2021/07/02 06:05:13;;;;;;;16.13;5.65;;;;;;;30.34;47.70;99249.59;5035282;28;20212;-73
2021/07/02 06:07:45;;;;;;;16.23;6.30;;;;;;;30.41;47.61;99250.78;5034734;28;20037;-74
2021/07/02 06:10:12;;;;;;;16.13;9.90;;;;;;;30.13;49.72;99246.41;5038341;28;20029;-72
2021/07/02 06:12:37;;;;;;;19.05;6.07;;;;;;;30.33;48.58;99256.16;5038787;28;20178;-73
2021/07/02 06:15:04;;;;;;;16.58;7.18;;;;;;;30.97;48.44;99254.28;5035180;28;20029;-71
2021/07/02 06:17:29;;;;;;;12.48;6.00;;;;;;;30.32;47.96;99249.91;5034876;28;20025;-71
2021/07/02 06:19:55;;;;;;;16.08;5.82;;;;;;;30.87;46.60;99258.03;5036805;28;20352;-71
2021/07/02 06:22:20;;;;;;;17.42;5.65;;;;;;;31.50;46.37;99267.28;5036625;28;20033;-71
2021/07/02 06:24:46;;;;;;;16.13;6.32;;;;;;;31.57;45.48;99263.00;5035397;28;20029;-71
2021/07/02 06:27:11;;;;;;;18.13;6.18;;;;;;;31.65;45.13;99256.78;5038276;28;20073;-71
2021/07/02 06:29:36;;;;;;;19.05;6.22;;;;;;;31.83;44.64;99263.19;5038202;28;20083;-71
2021/07/02 06:32:02;;;;;;;8.85;6.00;;;;;;;31.90;44.17;99255.31;5037353;28;20025;-71
2021/07/02 06:34:28;;;;;;;11.82;6.07;;;;;;;31.67;45.60;99257.25;5037096;28;20301;-70
2021/07/02 06:36:53;;;;;;;10.60;5.70;;;;;;;31.96;42.80;99256.81;5036327;28;20041;-71
2021/07/02 06:39:19;;;;;;;13.20;6.30;;;;;;;32.44;43.41;99258.81;5039180;28;20053;-70
2021/07/02 06:41:44;;;;;;;11.48;5.47;;;;;;;32.59;41.97;99255.63;5035059;28;20073;-70
2021/07/02 06:44:09;;;;;;;19.17;6.03;;;;;;;32.64;41.93;99252.75;5032776;28;20037;-71
2021/07/02 06:46:35;;;;;;;11.93;6.13;;;;;;;32.14;43.12;99259.63;5038115;28;20387;-71
2021/07/02 06:49:04;;;;;;;11.45;5.45;;;;;;;32.89;40.95;99250.38;5034024;28;20340;-71
2021/07/02 06:51:30;;;;;;;12.77;5.53;;;;;;;32.85;41.04;99247.47;5037248;28;20108;-71
2021/07/02 06:53:55;;;;;;;13.25;6.03;;;;;;;32.92;40.91;99241.50;5065466;28;20211;-71
2021/07/02 06:56:21;;;;;;;13.98;5.88;;;;;;;32.94;41.48;99229.09;5036461;28;20117;-71
2021/07/02 06:58:49;;;;;;;12.13;5.32;;;;;;;33.34;39.40;99233.66;5032999;28;20044;-71
2021/07/02 07:01:15;;;;;;;12.95;5.18;;;;;;;33.36;40.55;99223.16;5046608;28;20029;-71
2021/07/02 07:03:40;;;;;;;12.32;5.70;;;;;;;33.50;39.67;99230.06;5035537;28;20049;-72
2021/07/02 07:06:06;;;;;;;13.68;5.68;;;;;;;33.52;40.60;99232.47;5036589;28;20025;-71
2021/07/02 07:08:31;;;;;;;18.60;9.05;;;;;;;33.46;40.75;99233.78;5037528;28;20249;-71
2021/07/02 07:10:57;;;;;;;12.15;4.82;;;;;;;33.86;38.81;99229.66;5033163;28;20040;-71
2021/07/02 07:13:22;;;;;;;10.85;4.47;;;;;;;34.38;38.49;99228.69;5033921;28;20032;-71
2021/07/02 07:15:48;;;;;;;11.18;5.25;;;;;;;33.99;37.19;99232.53;5037099;28;20037;-71
2021/07/02 07:18:14;;;;;;;8.02;4.15;;;;;;;33.89;36.77;99219.97;5032906;28;20234;-71
2021/07/02 07:20:39;;;;;;;9.98;4.30;;;;;;;33.88;36.38;99232.09;5037567;28;20037;-71
2021/07/02 07:23:05;;;;;;;13.48;4.70;;;;;;;34.30;35.17;99219.28;5033333;28;20041;-71
2021/07/02 07:25:30;;;;;;;13.18;5.00;;;;;;;34.46;35.89;99223.13;5038277;28;20029;-71
2021/07/02 07:27:56;;;;;;;9.90;4.93;;;;;;;34.34;34.02;99214.00;5035983;28;20047;-71
2021/07/02 07:30:21;;;;;;;12.38;5.55;;;;;;;34.23;35.10;99227.25;5037384;28;20043;-71
2021/07/02 07:32:50;;;;;;;14.65;5.28;;;;;;;34.72;34.25;99216.66;5036825;28;20037;-71
2021/07/02 07:35:32;;;;;;;16.48;5.20;;;;;;;34.25;36.64;99230.47;5034300;28;20041;-71
2021/07/02 07:37:57;;;;;;;11.10;4.53;;;;;;;34.45;36.41;99226.22;5035698;28;20033;-71
2021/07/02 07:40:26;;;;;;;13.43;4.80;;;;;;;34.36;36.27;99226.25;5038587;28;20036;-71
2021/07/02 07:42:52;;;;;;;9.93;4.20;;;;;;;34.50;35.55;99234.28;5039547;28;20037;-71
2021/07/02 07:45:18;;;;;;;12.98;4.38;;;;;;;34.61;35.63;99224.50;5049458;28;20029;-71
2021/07/02 07:47:43;;;;;;;10.15;4.32;;;;;;;34.66;35.81;99229.00;5040531;28;20068;-71
2021/07/02 07:50:11;;;;;;;17.70;5.50;;;;;;;34.84;35.16;99225.81;5039552;28;20319;-71
2021/07/02 07:52:46;;;;;;;12.25;6.68;;;;;;;34.89;35.28;99230.31;5039439;28;20051;-70
2021/07/02 07:55:11;;;;;;;12.23;6.50;;;;;;;34.51;35.78;99241.38;5041364;28;20342;-71
2021/07/02 07:57:37;;;;;;;12.80;6.32;;;;;;;34.43;35.92;99231.25;5036095;28;20040;-71
2021/07/02 08:00:06;;;;;;;12.20;5.07;;;;;;;34.10;35.85;99231.84;5037842;28;20029;-71
2021/07/02 08:02:32;;;;;;;8.98;4.30;;;;;;;34.01;36.68;99235.75;5039921;28;20104;-71
2021/07/02 08:04:58;;;;;;;11.77;5.85;;;;;;;34.13;36.34;99233.91;5037877;28;20049;-71
2021/07/02 08:07:23;;;;;;;13.88;6.15;;;;;;;34.42;35.86;99237.88;5040003;28;20254;-71
2021/07/02 08:09:49;;;;;;;12.00;7.60;;;;;;;33.66;36.70;99233.09;5043632;28;20025;-71
2021/07/02 08:12:15;;;;;;;11.00;4.50;;;;;;;34.04;36.15;99210.38;5043237;28;20338;-71
2021/07/02 08:14:40;;;;;;;7.57;4.45;;;;;;;34.41;35.34;99239.00;5043335;28;20100;-71
2021/07/02 08:17:06;;;;;;;6.05;3.72;;;;;;;34.64;35.33;99223.81;5043650;28;20037;-71
2021/07/02 08:19:31;;;;;;;10.13;4.72;;;;;;;34.99;33.66;99226.34;5043885;28;20025;-71
2021/07/02 08:21:57;;;;;;;8.57;4.00;;;;;;;35.13;33.95;99197.41;5043648;28;20037;-72
2021/07/02 08:24:22;;;;;;;10.98;4.07;;;;;;;35.58;33.27;99218.69;5042114;28;20025;-71
2021/07/02 08:26:55;;;;;;;8.65;5.00;;;;;;;35.06;33.64;99218.34;5043497;28;20052;-71
2021/07/02 08:29:25;;;;;;;9.02;4.00;;;;;;;34.79;34.23;99214.16;5043052;28;20033;-70
2021/07/02 08:31:51;;;;;;;9.50;3.90;;;;;;;35.11;33.25;99210.69;5044170;28;20033;-70
2021/07/02 08:34:16;;;;;;;6.20;3.65;;;;;;;35.49;32.89;99210.53;5043395;28;20041;-71
2021/07/02 08:36:42;;;;;;;11.20;3.80;;;;;;;35.85;32.59;99213.72;5042338;28;20025;-71
2021/07/02 08:39:08;;;;;;;6.05;4.10;;;;;;;35.91;30.98;99215.13;5043356;28;20033;-71
2021/07/02 08:41:34;;;;;;;14.10;4.57;;;;;;;36.25;29.89;99214.66;5042090;28;20024;-71
2021/07/02 08:44:00;;;;;;;9.52;3.90;;;;;;;36.42;29.64;99216.44;5043015;28;20042;-71
2021/07/02 08:46:26;;;;;;;9.10;3.83;;;;;;;36.52;30.58;99201.38;5043174;28;20092;-72
2021/07/02 08:48:51;;;;;;;9.32;4.25;;;;;;;36.37;29.53;99195.38;5043153;28;20238;-71
2021/07/02 08:51:18;;;;;;;6.70;3.50;;;;;;;37.00;29.76;99192.19;5043082;28;20063;-71
2021/07/02 08:53:44;;;;;;;11.13;4.05;;;;;;;36.59;30.22;99191.34;5043072;28;20065;-71
2021/07/02 08:56:10;;;;;;;8.98;4.63;;;;;;;36.44;29.35;99190.13;5042799;28;20075;-71
2021/07/02 08:58:36;;;;;;;7.47;3.85;;;;;;;35.85;28.98;99197.19;5038587;28;20037;-71
2021/07/02 09:01:07;;;;;;;10.30;3.72;;;;;;;35.93;28.45;99188.81;5034644;28;20345;-71
2021/07/02 09:03:36;;;;;;;10.27;4.68;;;;;;;35.77;30.10;99199.69;5070843;28;20238;-71
2021/07/02 09:06:19;;;;;;;8.23;3.70;;;;;;;35.80;29.60;99203.72;5035483;28;20260;-71
2021/07/02 09:09:07;;;;;;;11.20;4.25;;;;;;;36.07;30.37;99192.03;5038995;28;20337;-71
2021/07/02 09:11:34;;;;;;;8.25;4.65;;;;;;;35.77;29.43;99193.38;5035261;28;20045;-71
2021/07/02 09:14:02;;;;;;;10.48;4.07;;;;;;;35.89;28.22;99195.38;5037521;28;20222;-70
2021/07/02 09:16:39;;;;;;;7.15;4.03;;;;;;;36.15;28.06;99184.81;5040211;28;20025;-71
2021/07/02 09:19:20;;;;;;;10.10;4.00;;;;;;;35.90;28.27;99192.28;5054709;28;20045;-71
2021/07/02 09:21:45;;;;;;;11.55;4.30;;;;;;;35.91;29.40;99188.38;5042594;28;20388;-71
2021/07/02 09:24:44;;;;;;;8.35;3.90;;;;;;;35.98;29.82;99188.59;5042351;28;20139;-71
2021/07/02 09:27:31;;;;;;;9.43;4.63;;;;;;;35.21;30.27;99184.69;5041031;28;20045;-71
2021/07/02 09:30:18;;;;;;;7.28;4.10;;;;;;;35.08;31.74;99183.03;5041044;28;20034;-71
2021/07/02 09:32:49;;;;;;;10.55;5.60;;;;;;;34.53;31.69;99187.66;5042457;28;20033;-71
2021/07/02 09:35:17;;;;;;;9.00;4.20;;;;;;;34.61;32.21;99180.50;5042221;28;20041;-71
2021/07/02 09:37:47;;;;;;;12.75;4.40;;;;;;;34.80;31.86;99161.56;5042285;28;20085;-71
2021/07/02 09:40:22;;;;;;;17.85;5.05;;;;;;;35.16;29.10;99169.22;5042104;28;20029;-71
2021/07/02 09:43:17;;;;;;;8.32;4.10;;;;;;;35.29;31.25;99169.25;5041920;28;20049;-70
2021/07/02 09:45:52;;;;;;;8.25;4.45;;;;;;;35.07;30.07;99159.44;5041638;28;20049;-71
2021/07/02 09:48:19;;;;;;;10.88;4.28;;;;;;;34.48;31.49;99157.63;5040608;28;20254;-71
2021/07/02 09:50:52;;;;;;;13.40;8.13;;;;;;;33.83;33.33;99147.94;5041677;28;20338;-71
2021/07/02 09:53:21;;;;;;;9.30;3.72;;;;;;;34.05;33.91;99155.09;5040888;28;20051;-71
2021/07/02 09:55:51;;;;;;;11.55;5.40;;;;;;;33.96;33.37;99146.09;5041733;28;20271;-71
2021/07/02 09:58:22;;;;;;;9.25;5.35;;;;;;;34.50;33.52;99160.84;5040932;28;20060;-71
2021/07/02 10:00:53;;;;;;;7.85;4.38;;;;;;;34.33;31.99;99149.94;5039739;28;20078;-71
2021/07/02 10:03:25;;;;;;;10.02;4.25;;;;;;;33.55;31.85;99147.53;5040667;28;20100;-71
2021/07/02 10:05:55;;;;;;;11.75;4.22;;;;;;;32.90;33.68;99143.09;5038660;28;20044;-71
2021/07/02 10:08:26;;;;;;;11.00;4.50;;;;;;;32.72;33.58;99143.41;5035443;28;20258;-70
2021/07/02 10:10:53;;;;;;;9.10;4.43;;;;;;;33.01;33.57;99143.59;5036154;28;20120;-71
2021/07/02 10:13:27;;;;;;;13.45;4.25;;;;;;;32.75;34.24;99143.56;5038323;28;20041;-70
2021/07/02 10:15:54;;;;;;;7.45;4.38;;;;;;;32.78;34.31;99144.91;5036685;28;20105;-70
2021/07/02 10:18:22;;;;;;;11.30;4.97;;;;;;;33.04;36.07;99144.88;5033969;28;20041;-71
2021/07/02 10:20:48;;;;;;;12.93;7.13;;;;;;;32.94;34.86;99138.59;5053128;28;20044;-71
2021/07/02 10:23:24;;;;;;;12.13;5.47;;;;;;;32.86;33.97;99146.81;5038541;28;20053;-71
2021/07/02 10:25:52;;;;;;;11.80;5.47;;;;;;;32.98;34.50;99145.03;5035512;28;20281;-71
2021/07/02 10:28:18;;;;;;;10.73;4.57;;;;;;;33.35;33.00;99147.44;5033763;28;20029;-71
2021/07/02 10:30:43;;;;;;;8.07;4.22;;;;;;;33.67;33.07;99143.31;5041517;28;20421;-71
2021/07/02 10:33:10;;;;;;;9.75;3.75;;;;;;;33.73;33.45;99144.72;5032898;28;20030;-71
2021/07/02 10:35:35;;;;;;;8.80;4.75;;;;;;;33.44;34.42;99145.47;5034886;28;20021;-71
2021/07/02 10:38:03;;;;;;;10.23;4.35;;;;;;;33.69;34.52;99147.31;5036190;28;20152;-71
2021/07/02 10:40:43;;;;;;;10.82;3.78;;;;;;;34.01;34.65;99136.88;5038424;28;20025;-71
2021/07/02 10:43:24;;;;;;;7.47;4.18;;;;;;;33.83;34.78;99133.41;5034939;28;20060;-71
2021/07/02 10:46:16;;;;;;;7.95;4.07;;;;;;;33.70;35.56;99134.41;5038413;28;20085;-71
2021/07/02 10:49:02;;;;;;;8.43;3.50;;;;;;;33.60;35.59;99136.38;5037667;28;20038;-71
2021/07/02 10:51:37;;;;;;;7.97;3.78;;;;;;;33.82;34.49;99126.31;5035461;28;20060;-70
2021/07/02 10:54:23;;;;;;;11.13;4.10;;;;;;;33.90;33.22;99119.97;5038112;28;20040;-71
2021/07/02 10:56:58;;;;;;;6.72;3.22;;;;;;;33.99;33.63;99114.41;5036405;28;20025;-70
2021/07/02 10:59:42;;;;;;;13.32;3.97;;;;;;;33.61;35.62;99109.72;5037861;28;20071;-73
2021/07/02 11:04:40;;;;;;;7.95;4.22;;;;;;;33.78;33.23;99108.84;5034398;28;20118;-73
2021/07/02 11:07:25;;;;;;;10.75;3.58;;;;;;;33.78;33.31;99095.91;5067634;28;20025;-76
2021/07/02 11:09:57;;;;;;;11.10;3.75;;;;;;;33.63;33.92;99091.81;5036324;28;20343;-76
2021/07/02 11:12:23;;;;;;;8.63;4.20;;;;;;;33.63;34.35;99091.81;5037456;28;20053;-76
2021/07/02 11:14:51;;;;;;;4.43;3.45;;;;;;;33.34;33.98;99097.25;5036123;28;20040;-75
2021/07/02 11:17:35;;;;;;;8.98;4.07;;;;;;;33.13;34.11;99099.03;5042247;28;20105;-75
2021/07/02 11:20:07;;;;;;;9.40;4.40;;;;;;;32.95;33.15;99095.50;5043589;28;20361;-75
2021/07/02 11:22:50;;;;;;;7.93;3.50;;;;;;;33.07;32.70;99087.44;5038834;28;20148;-76
2021/07/02 11:25:30;;;;;;;7.18;3.72;;;;;;;33.15;35.97;99083.84;5044325;28;20039;-76
2021/07/02 11:28:05;;;;;;;10.10;4.15;;;;;;;33.18;34.58;99082.38;5040675;28;20100;-76
2021/07/02 11:30:34;;;;;;;9.68;4.30;;;;;;;33.29;34.08;99080.91;5040210;28;20135;-73
2021/07/02 11:33:09;;;;;;;9.90;4.15;;;;;;;33.14;34.82;99076.75;5035212;28;20307;-73
2021/07/02 11:35:57;;;;;;;8.13;3.75;;;;;;;33.17;33.93;99078.84;5039945;28;20077;-74
2021/07/02 11:38:24;;;;;;;8.27;3.90;;;;;;;33.16;33.08;99081.91;5041028;28;20044;-74
2021/07/02 11:40:54;;;;;;;6.90;3.80;;;;;;;32.94;34.19;99077.44;5039664;28;20062;-73
2021/07/02 11:43:30;;;;;;;8.55;4.07;;;;;;;32.77;35.04;99081.03;5041292;28;20044;-76
2021/07/02 11:46:09;;;;;;;7.40;3.30;;;;;;;32.67;35.59;99079.41;5037440;28;20365;-75